Time;durP1;ratioP1;P1;durP2;ratioP2;P2;SDS_P1;SDS_P2;PMS_P1;PMS_P2;Temp;Humidity;BMP_temperature;BMP_pressure;BME280_temperature;BME280_humidity;BME280_pressure;Samples;Min_cycle;Max_cycle;Signal;HPM_P1;HPM_P2
2023/03/09 00:01:44;;;;;;;18.30;10.57;;;3.50;99.90;;;;;;5092818;28;20475;-73
2023/03/09 00:04:13;;;;;;;18.25;10.77;;;3.40;99.90;;;;;;5093097;28;20032;-74
2023/03/09 00:06:39;;;;;;;19.83;10.90;;;3.40;99.90;;;;;;5100406;28;20034;-74
2023/03/09 00:09:06;;;;;;;16.83;10.82;;;3.40;99.90;;;;;;5090471;28;20035;-73
2023/03/09 00:11:31;;;;;;;16.83;10.18;;;3.40;99.90;;;;;;5094996;28;21273;-74
2023/03/09 00:13:57;;;;;;;17.05;10.30;;;3.40;99.90;;;;;;5096737;28;20032;-74
2023/03/09 00:16:26;;;;;;;19.33;10.68;;;3.50;99.90;;;;;;5090421;28;20201;-73
2023/03/09 00:18:54;;;;;;;17.35;10.15;;;3.50;99.90;;;;;;5093345;28;20028;-75
2023/03/09 00:21:36;;;;;;;19.48;12.00;;;3.50;99.90;;;;;;5084645;28;20032;-70
2023/03/09 00:24:11;;;;;;;19.15;11.50;;;3.50;99.90;;;;;;5072882;28;20040;-67
2023/03/09 00:26:39;;;;;;;18.73;10.93;;;3.50;99.90;;;;;;5092142;28;20075;-68
2023/03/09 00:29:06;;;;;;;20.45;11.60;;;3.40;99.90;;;;;;5100971;28;20076;-68
2023/03/09 00:31:32;;;;;;;19.35;11.73;;;3.40;99.90;;;;;;5095297;28;20404;-68
2023/03/09 00:33:58;;;;;;;19.80;12.27;;;3.40;99.90;;;;;;5100764;28;20032;-68
2023/03/09 00:36:24;;;;;;;17.38;11.85;;;3.40;99.90;;;;;;5093719;28;20039;-67
2023/03/09 00:38:54;;;;;;;19.83;13.02;;;3.50;99.90;;;;;;5098703;28;20028;-67
2023/03/09 00:41:21;;;;;;;20.17;11.77;;;3.40;99.90;;;;;;5074562;28;20067;-68
2023/03/09 00:43:47;;;;;;;23.63;14.02;;;3.40;99.90;;;;;;5100495;28;20034;-68
2023/03/09 00:46:13;;;;;;;21.27;13.05;;;3.40;99.90;;;;;;5096017;28;20035;-68
2023/03/09 00:48:40;;;;;;;19.20;12.23;;;3.40;99.90;;;;;;5106320;28;20201;-69
2023/03/09 00:51:06;;;;;;;20.75;11.73;;;3.40;99.90;;;;;;5105676;28;20498;-69
2023/03/09 00:53:32;;;;;;;20.77;12.57;;;3.40;99.90;;;;;;5104896;28;20040;-68
2023/03/09 00:56:09;;;;;;;22.40;13.45;;;3.40;99.90;;;;;;5097548;28;20501;-68
2023/03/09 00:58:35;;;;;;;20.77;13.07;;;3.40;99.90;;;;;;5077901;28;20131;-68
2023/03/09 01:01:05;;;;;;;20.88;12.45;;;3.40;99.90;;;;;;5106838;28;20111;-68
2023/03/09 01:03:31;;;;;;;20.58;13.52;;;3.40;99.90;;;;;;5095193;28;20024;-69
2023/03/09 01:05:59;;;;;;;20.90;12.50;;;3.40;99.90;;;;;;5094250;28;20537;-69
2023/03/09 01:08:24;;;;;;;19.65;12.52;;;3.40;99.90;;;;;;5102251;28;20078;-69
2023/03/09 01:10:50;;;;;;;24.08;13.75;;;3.50;99.90;;;;;;5104404;28;20412;-68
2023/03/09 01:13:15;;;;;;;22.63;13.00;;;3.50;99.90;;;;;;5090388;28;20032;-68
2023/03/09 01:15:41;;;;;;;21.92;13.10;;;3.40;99.90;;;;;;5092285;28;20524;-68
2023/03/09 01:18:07;;;;;;;22.40;13.20;;;3.40;99.90;;;;;;5098393;28;20020;-68
2023/03/09 01:20:32;;;;;;;21.48;12.85;;;3.40;99.90;;;;;;5107335;28;20517;-68
2023/03/09 01:22:58;;;;;;;21.55;12.73;;;3.40;99.90;;;;;;5102825;27;20505;-68
2023/03/09 01:25:24;;;;;;;20.50;12.43;;;3.40;99.90;;;;;;5100772;28;20031;-68
2023/03/09 01:27:51;;;;;;;22.80;13.73;;;3.40;99.90;;;;;;5085614;28;20040;-67
2023/03/09 01:30:17;;;;;;;20.05;12.65;;;3.40;99.90;;;;;;5100783;28;20688;-68
2023/03/09 01:32:42;;;;;;;21.40;13.20;;;3.40;99.90;;;;;;5101787;28;20043;-68
2023/03/09 01:35:08;;;;;;;21.83;13.73;;;3.40;99.90;;;;;;5096540;28;20028;-68
2023/03/09 01:37:34;;;;;;;20.17;13.50;;;3.40;99.90;;;;;;5076220;28;20035;-69
2023/03/09 01:40:00;;;;;;;20.73;13.27;;;3.40;99.90;;;;;;5097556;28;20032;-68
2023/03/09 01:42:25;;;;;;;19.27;12.32;;;3.40;99.90;;;;;;5107848;28;20125;-67
2023/03/09 01:45:29;;;;;;;21.25;13.30;;;3.40;99.90;;;;;;5094046;28;20078;-69
2023/03/09 01:47:59;;;;;;;21.35;12.70;;;3.40;99.90;;;;;;5092628;28;20051;-68
2023/03/09 01:50:32;;;;;;;23.27;13.43;;;3.40;99.90;;;;;;5096447;28;20062;-69
2023/03/09 01:53:05;;;;;;;21.75;13.35;;;3.40;99.90;;;;;;5097243;28;20020;-69
2023/03/09 01:55:36;;;;;;;22.23;13.52;;;3.40;99.90;;;;;;5096669;27;20027;-69
2023/03/09 01:58:06;;;;;;;25.70;14.63;;;3.40;99.90;;;;;;5098429;28;20100;-68
2023/03/09 02:00:34;;;;;;;24.80;15.20;;;3.40;99.90;;;;;;5092909;28;20036;-69
2023/03/09 02:03:07;;;;;;;25.52;14.77;;;3.40;99.90;;;;;;5106160;28;20030;-68
2023/03/09 02:05:56;;;;;;;24.77;14.52;;;3.40;99.90;;;;;;5093603;28;20078;-67
2023/03/09 02:08:24;;;;;;;23.17;14.43;;;3.30;99.90;;;;;;5107558;28;20164;-68
2023/03/09 02:11:17;;;;;;;25.70;14.68;;;3.30;99.90;;;;;;5090378;28;20044;-68
2023/03/09 02:13:46;;;;;;;26.45;14.38;;;3.30;99.90;;;;;;5091401;28;20032;-68
2023/03/09 02:16:13;;;;;;;23.30;14.02;;;3.20;99.90;;;;;;5099155;28;20084;-68
2023/03/09 02:18:39;;;;;;;26.88;15.35;;;3.20;99.90;;;;;;5100646;28;20032;-68
2023/03/09 02:21:21;;;;;;;23.80;13.95;;;3.20;99.90;;;;;;5098439;28;20080;-69
2023/03/09 02:24:08;;;;;;;25.98;15.93;;;3.20;99.90;;;;;;5097634;28;20301;-68
2023/03/09 02:26:41;;;;;;;24.63;14.02;;;3.20;99.90;;;;;;5086887;28;20091;-68
2023/03/09 02:29:07;;;;;;;26.40;14.57;;;3.20;99.90;;;;;;5092327;28;20082;-68
2023/03/09 02:31:33;;;;;;;24.30;14.85;;;3.20;99.90;;;;;;5096308;28;20057;-68
2023/03/09 02:33:59;;;;;;;23.92;14.98;;;3.10;99.90;;;;;;5089871;28;20435;-69
2023/03/09 02:36:25;;;;;;;25.88;14.73;;;3.10;99.90;;;;;;5092878;28;20479;-68
2023/03/09 02:38:51;;;;;;;29.42;16.15;;;3.00;99.90;;;;;;5112067;28;20035;-68
2023/03/09 02:41:19;;;;;;;29.65;15.95;;;3.00;99.90;;;;;;5102957;28;20088;-68
2023/03/09 02:43:52;;;;;;;27.77;15.90;;;3.00;99.90;;;;;;5103191;28;20348;-68
2023/03/09 02:46:18;;;;;;;25.52;14.15;;;2.90;99.90;;;;;;5092736;28;20032;-68
2023/03/09 02:48:43;;;;;;;27.25;14.85;;;2.90;99.90;;;;;;5096040;28;20558;-68
2023/03/09 02:51:09;;;;;;;25.70;15.18;;;2.90;99.90;;;;;;5103783;28;20028;-68
2023/03/09 02:53:35;;;;;;;26.27;14.63;;;3.00;99.90;;;;;;5092331;28;20024;-68
2023/03/09 02:56:01;;;;;;;25.42;15.15;;;3.00;99.90;;;;;;5101659;28;20012;-68
2023/03/09 02:58:27;;;;;;;26.48;15.77;;;2.90;99.90;;;;;;5095549;28;20495;-68
2023/03/09 03:00:52;;;;;;;26.92;14.75;;;3.00;99.90;;;;;;5090163;28;20048;-68
2023/03/09 03:03:20;;;;;;;28.63;16.27;;;3.00;99.90;;;;;;5092246;28;20036;-68
2023/03/09 03:05:47;;;;;;;27.45;16.88;;;3.00;99.90;;;;;;5093509;28;20487;-68
2023/03/09 03:08:13;;;;;;;24.60;15.00;;;3.00;99.90;;;;;;5100705;28;20057;-68
2023/03/09 03:10:39;;;;;;;25.65;14.40;;;3.00;99.90;;;;;;5082971;28;20012;-67
2023/03/09 03:13:04;;;;;;;30.35;16.48;;;3.00;99.90;;;;;;5100109;28;20101;-68
2023/03/09 03:15:30;;;;;;;30.77;16.10;;;2.90;99.90;;;;;;5090445;28;20031;-68
2023/03/09 03:17:55;;;;;;;26.25;15.80;;;2.80;99.90;;;;;;5089978;28;20125;-68
2023/03/09 03:20:21;;;;;;;28.38;15.65;;;2.80;99.90;;;;;;5099572;28;20097;-68
2023/03/09 03:22:48;;;;;;;26.80;15.95;;;2.80;99.90;;;;;;5098328;28;20028;-68
2023/03/09 03:25:13;;;;;;;26.95;15.52;;;2.80;99.90;;;;;;5098781;28;20052;-68
2023/03/09 03:27:40;;;;;;;23.75;13.23;;;2.70;99.90;;;;;;5092724;28;20070;-68
2023/03/09 03:30:07;;;;;;;28.90;15.30;;;2.70;99.90;;;;;;5088870;28;20024;-69
2023/03/09 03:32:32;;;;;;;23.50;13.93;;;2.70;99.90;;;;;;5099941;28;20031;-69
2023/03/09 03:34:58;;;;;;;23.70;13.10;;;2.70;99.90;;;;;;5096743;28;20377;-69
2023/03/09 03:37:23;;;;;;;22.40;13.30;;;2.70;99.90;;;;;;5105538;28;20032;-69
2023/03/09 03:39:49;;;;;;;26.02;14.48;;;2.70;99.90;;;;;;5092553;28;20031;-69
2023/03/09 03:42:15;;;;;;;25.88;14.63;;;2.70;99.90;;;;;;5100729;28;20024;-69
2023/03/09 03:44:40;;;;;;;26.20;14.23;;;2.70;99.90;;;;;;5089801;28;20061;-69
2023/03/09 03:47:06;;;;;;;27.77;14.70;;;2.60;99.90;;;;;;5099692;28;20071;-69
2023/03/09 03:49:32;;;;;;;26.80;12.98;;;2.60;99.90;;;;;;5100851;28;20032;-69
2023/03/09 03:51:57;;;;;;;28.75;15.00;;;2.50;99.90;;;;;;5095298;28;20031;-69
2023/03/09 03:54:23;;;;;;;22.88;13.05;;;2.50;99.90;;;;;;5106418;28;20039;-68
2023/03/09 03:56:48;;;;;;;23.15;13.35;;;2.50;99.90;;;;;;5099646;28;20044;-69
2023/03/09 03:59:14;;;;;;;26.17;14.30;;;2.50;99.90;;;;;;5090472;28;20506;-69
2023/03/09 04:01:40;;;;;;;26.42;14.85;;;2.50;99.90;;;;;;5097421;28;20020;-69
2023/03/09 04:04:05;;;;;;;27.60;13.27;;;2.40;99.90;;;;;;5103969;28;20490;-69
2023/03/09 04:06:32;;;;;;;23.63;13.60;;;2.40;99.90;;;;;;5102630;28;20031;-69
2023/03/09 04:08:58;;;;;;;21.42;13.10;;;2.40;99.90;;;;;;5108720;28;20032;-68
2023/03/09 04:11:24;;;;;;;23.98;14.50;;;2.40;99.90;;;;;;5101488;28;20051;-68
2023/03/09 04:13:50;;;;;;;23.75;12.98;;;2.40;99.90;;;;;;5105838;28;20059;-68
2023/03/09 04:16:16;;;;;;;21.88;13.30;;;2.40;99.90;;;;;;5096528;28;20031;-68
2023/03/09 04:18:42;;;;;;;25.42;13.82;;;2.30;99.90;;;;;;5103571;28;20038;-68
2023/03/09 04:21:07;;;;;;;26.23;15.35;;;2.40;99.90;;;;;;5106310;28;20032;-68
2023/03/09 04:23:33;;;;;;;24.17;13.75;;;2.40;99.90;;;;;;5099372;28;20110;-68
2023/03/09 04:26:01;;;;;;;26.67;14.65;;;2.40;99.90;;;;;;5098921;28;20115;-68
2023/03/09 04:28:27;;;;;;;25.73;14.45;;;2.40;99.90;;;;;;5099743;28;20024;-67
2023/03/09 04:30:53;;;;;;;25.33;14.85;;;2.40;99.90;;;;;;5094528;28;20050;-67
2023/03/09 04:33:20;;;;;;;22.55;13.50;;;2.40;99.90;;;;;;5084941;28;20035;-67
2023/03/09 04:35:46;;;;;;;25.95;14.55;;;2.30;99.90;;;;;;5096103;28;20047;-67
2023/03/09 04:38:11;;;;;;;29.33;15.50;;;2.30;99.90;;;;;;5093087;28;20070;-68
2023/03/09 04:40:37;;;;;;;24.90;14.55;;;2.30;99.90;;;;;;5095358;28;20410;-68
2023/03/09 04:43:03;;;;;;;25.83;14.20;;;2.30;99.90;;;;;;5093927;28;20479;-68
2023/03/09 04:45:29;;;;;;;25.42;15.90;;;2.30;99.90;;;;;;5108212;28;20028;-68
2023/03/09 04:47:55;;;;;;;26.17;14.85;;;2.40;99.90;;;;;;5101199;28;20048;-68
2023/03/09 04:50:21;;;;;;;29.33;16.88;;;2.40;99.90;;;;;;5087942;28;20544;-67
2023/03/09 04:52:46;;;;;;;30.02;16.15;;;2.40;99.90;;;;;;5099132;28;20027;-67
2023/03/09 04:55:12;;;;;;;28.80;15.85;;;2.40;99.90;;;;;;5094333;28;20039;-67
2023/03/09 04:57:37;;;;;;;26.30;15.07;;;2.40;99.90;;;;;;5096045;28;20485;-68
2023/03/09 05:00:06;;;;;;;28.08;16.35;;;2.40;99.90;;;;;;5104465;28;20164;-69
2023/03/09 05:02:32;;;;;;;34.95;17.40;;;2.40;99.90;;;;;;5103980;28;20125;-69
2023/03/09 05:04:58;;;;;;;28.45;16.48;;;2.40;99.90;;;;;;5104643;28;20106;-69
2023/03/09 05:07:23;;;;;;;29.58;15.95;;;2.40;99.90;;;;;;5100079;28;20036;-69
2023/03/09 05:09:49;;;;;;;26.80;15.73;;;2.40;99.90;;;;;;5109389;28;20158;-69
2023/03/09 05:12:15;;;;;;;27.10;15.75;;;2.40;99.90;;;;;;5101352;28;20035;-70
2023/03/09 05:14:40;;;;;;;27.60;16.75;;;2.40;99.90;;;;;;5094651;28;20032;-70
2023/03/09 05:17:06;;;;;;;25.63;15.57;;;2.40;99.90;;;;;;5095171;28;21799;-71
2023/03/09 05:19:33;;;;;;;30.42;17.88;;;2.40;99.90;;;;;;5107311;28;20402;-71
2023/03/09 05:21:59;;;;;;;27.52;15.68;;;2.40;99.90;;;;;;5104231;28;20031;-71
2023/03/09 05:24:24;;;;;;;25.88;15.90;;;2.40;99.90;;;;;;5090344;28;20020;-70
2023/03/09 05:26:50;;;;;;;27.88;17.13;;;2.40;99.90;;;;;;5094750;28;20070;-71
2023/03/09 05:29:16;;;;;;;29.23;16.83;;;2.50;99.90;;;;;;5093667;28;20024;-71
2023/03/09 05:31:41;;;;;;;25.73;15.50;;;2.40;99.90;;;;;;5100219;28;20024;-70
2023/03/09 05:34:07;;;;;;;28.83;16.88;;;2.40;99.90;;;;;;5101587;28;20035;-70
2023/03/09 05:36:32;;;;;;;25.83;16.80;;;2.50;99.90;;;;;;5094731;28;20026;-70
2023/03/09 05:38:59;;;;;;;26.48;16.38;;;2.50;99.90;;;;;;5102229;28;20048;-70
2023/03/09 05:41:24;;;;;;;28.35;17.60;;;2.50;99.90;;;;;;5089761;28;20475;-69
2023/03/09 05:43:50;;;;;;;28.67;17.17;;;2.50;99.90;;;;;;5100317;28;20028;-72
2023/03/09 05:46:16;;;;;;;28.20;16.75;;;2.50;99.90;;;;;;5091295;28;20036;-73
2023/03/09 05:48:43;;;;;;;32.90;17.05;;;2.50;99.90;;;;;;5091088;28;20122;-73
2023/03/09 05:51:10;;;;;;;27.70;17.42;;;2.60;99.90;;;;;;5095574;28;20400;-73
2023/03/09 05:53:36;;;;;;;26.73;16.10;;;2.50;99.90;;;;;;5108072;28;20457;-73
2023/03/09 05:56:03;;;;;;;25.63;16.30;;;2.60;99.90;;;;;;5101713;28;20052;-73
2023/03/09 05:58:29;;;;;;;31.02;18.88;;;2.60;99.90;;;;;;5091079;28;20086;-74
2023/03/09 06:00:56;;;;;;;29.45;17.98;;;2.60;99.90;;;;;;5093077;28;20439;-73
2023/03/09 06:03:22;;;;;;;30.20;17.65;;;2.50;99.90;;;;;;5094111;28;20039;-74
2023/03/09 06:05:48;;;;;;;27.90;17.40;;;2.50;99.90;;;;;;5093260;28;20023;-72
2023/03/09 06:08:14;;;;;;;30.23;18.10;;;2.50;99.90;;;;;;5095233;28;20085;-73
2023/03/09 06:10:40;;;;;;;26.70;17.10;;;2.50;99.90;;;;;;5096216;28;20043;-73
2023/03/09 06:13:05;;;;;;;28.80;18.48;;;2.40;99.90;;;;;;5090053;28;20032;-73
2023/03/09 06:15:32;;;;;;;28.98;17.40;;;2.40;99.90;;;;;;5090994;28;20032;-72
2023/03/09 06:17:57;;;;;;;28.92;16.58;;;2.50;99.90;;;;;;5099024;28;20040;-73
2023/03/09 06:20:23;;;;;;;27.13;16.95;;;2.40;99.90;;;;;;5091925;28;20069;-73
2023/03/09 06:22:49;;;;;;;25.70;15.95;;;2.40;99.90;;;;;;5098960;28;20048;-72
2023/03/09 06:25:15;;;;;;;29.95;17.08;;;2.40;99.90;;;;;;5101444;28;20041;-73
2023/03/09 06:27:41;;;;;;;25.73;16.38;;;2.40;99.90;;;;;;5097305;28;20054;-73
2023/03/09 06:30:08;;;;;;;27.83;17.50;;;2.40;99.90;;;;;;5101431;28;20032;-72
2023/03/09 06:32:34;;;;;;;28.10;17.10;;;2.40;99.90;;;;;;5089440;28;20440;-74
2023/03/09 06:35:00;;;;;;;25.38;15.80;;;2.40;99.90;;;;;;5079844;28;20020;-74
2023/03/09 06:37:27;;;;;;;29.58;17.20;;;2.40;99.90;;;;;;5106864;28;20068;-74
2023/03/09 06:39:52;;;;;;;29.02;18.48;;;2.40;99.90;;;;;;5091215;28;20036;-74
2023/03/09 06:42:18;;;;;;;25.85;16.55;;;2.40;99.90;;;;;;5102406;28;20440;-74
2023/03/09 06:44:44;;;;;;;28.70;18.38;;;2.40;99.90;;;;;;5101627;28;20036;-74
2023/03/09 06:47:11;;;;;;;24.17;15.80;;;2.40;99.90;;;;;;5096224;28;20067;-74
2023/03/09 06:49:37;;;;;;;29.25;15.40;;;2.50;99.90;;;;;;5089831;28;20043;-72
2023/03/09 06:52:03;;;;;;;23.17;15.07;;;2.50;99.90;;;;;;5101135;28;20028;-73
2023/03/09 06:54:28;;;;;;;28.70;17.30;;;2.50;99.90;;;;;;5090667;28;20061;-72
2023/03/09 06:56:54;;;;;;;30.80;18.20;;;2.40;99.90;;;;;;5092349;28;20036;-72
2023/03/09 06:59:19;;;;;;;35.70;16.38;;;2.50;99.90;;;;;;5091353;28;20044;-72
2023/03/09 07:01:45;;;;;;;26.00;16.83;;;2.50;99.90;;;;;;5092875;28;20419;-71
2023/03/09 07:04:11;;;;;;;23.92;15.70;;;2.50;99.90;;;;;;5092619;28;20073;-72
2023/03/09 07:06:37;;;;;;;26.48;15.38;;;2.50;99.90;;;;;;5083451;28;20035;-72
2023/03/09 07:09:03;;;;;;;22.48;14.70;;;2.50;99.90;;;;;;5090786;28;20513;-72
2023/03/09 07:11:29;;;;;;;23.63;14.57;;;2.50;99.90;;;;;;5091416;28;20020;-73
2023/03/09 07:13:54;;;;;;;21.98;13.88;;;2.60;99.90;;;;;;5091051;28;20081;-73
2023/03/09 07:16:22;;;;;;;21.40;14.10;;;2.60;99.90;;;;;;5092490;28;20063;-72
2023/03/09 07:18:48;;;;;;;22.48;14.25;;;2.50;99.90;;;;;;5109669;28;20030;-72
2023/03/09 07:21:13;;;;;;;24.65;14.05;;;2.50;99.90;;;;;;5081554;28;20032;-72
2023/03/09 07:23:39;;;;;;;22.20;13.90;;;2.50;99.90;;;;;;5100413;28;20046;-72
2023/03/09 07:26:05;;;;;;;24.00;14.15;;;2.50;99.90;;;;;;5090003;28;20031;-74
2023/03/09 07:28:31;;;;;;;20.73;13.85;;;2.50;99.90;;;;;;5103996;28;20031;-74
2023/03/09 07:30:56;;;;;;;23.08;14.40;;;2.60;99.90;;;;;;5090634;28;20031;-73
2023/03/09 07:33:22;;;;;;;23.23;14.75;;;2.60;99.90;;;;;;5102182;28;20035;-73
2023/03/09 07:35:48;;;;;;;26.08;14.52;;;2.70;99.90;;;;;;5089568;28;20031;-73
2023/03/09 07:38:13;;;;;;;24.58;15.65;;;2.60;99.90;;;;;;5094250;28;20020;-73
2023/03/09 07:40:39;;;;;;;24.00;16.38;;;2.60;99.90;;;;;;5092367;28;20035;-73
2023/03/09 07:43:06;;;;;;;23.83;15.75;;;2.60;99.90;;;;;;5108622;28;20107;-73
2023/03/09 07:45:31;;;;;;;23.25;14.82;;;2.70;99.90;;;;;;5094479;28;20153;-73
2023/03/09 07:47:57;;;;;;;21.23;14.48;;;2.70;99.90;;;;;;5094757;28;20043;-73
2023/03/09 07:50:23;;;;;;;19.60;14.02;;;2.70;99.90;;;;;;5090880;28;20486;-74
2023/03/09 07:52:49;;;;;;;22.45;13.35;;;2.80;99.90;;;;;;5082891;28;20039;-70
2023/03/09 07:55:15;;;;;;;21.70;13.75;;;2.80;99.90;;;;;;5084113;28;20108;-70
2023/03/09 07:57:41;;;;;;;20.67;12.55;;;2.80;99.90;;;;;;5104257;28;20130;-69
2023/03/09 08:00:12;;;;;;;19.27;13.45;;;2.80;99.90;;;;;;5083363;28;20162;-68
2023/03/09 08:02:41;;;;;;;20.23;12.68;;;2.80;99.90;;;;;;5091970;28;20092;-69
2023/03/09 08:05:09;;;;;;;19.63;12.93;;;2.80;99.90;;;;;;5095077;28;20024;-69
2023/03/09 08:07:35;;;;;;;19.45;13.88;;;2.90;99.90;;;;;;5092418;28;20039;-69
2023/03/09 08:10:01;;;;;;;21.15;13.30;;;3.00;99.90;;;;;;5086627;28;20027;-67
2023/03/09 08:12:27;;;;;;;20.42;13.35;;;2.90;99.90;;;;;;5081263;28;20544;-68
2023/03/09 08:14:53;;;;;;;21.45;14.05;;;2.90;99.90;;;;;;5082311;28;20032;-67
2023/03/09 08:17:18;;;;;;;19.50;13.23;;;2.90;99.90;;;;;;5092384;28;20038;-67
2023/03/09 08:19:44;;;;;;;18.50;12.52;;;2.90;99.90;;;;;;5089144;28;20032;-67
2023/03/09 08:22:10;;;;;;;20.00;13.43;;;2.90;99.90;;;;;;5094081;28;20175;-67
2023/03/09 08:24:36;;;;;;;20.15;14.52;;;3.00;99.90;;;;;;5082736;28;20237;-67
2023/03/09 08:27:02;;;;;;;19.33;12.55;;;3.00;99.90;;;;;;5081225;28;20131;-67
2023/03/09 08:29:28;;;;;;;21.23;13.43;;;3.10;99.90;;;;;;5082925;28;20036;-66
2023/03/09 08:31:54;;;;;;;23.05;15.63;;;3.10;99.90;;;;;;5094687;28;20398;-67
2023/03/09 08:34:20;;;;;;;22.67;14.55;;;3.20;99.90;;;;;;5077228;28;20042;-67
2023/03/09 08:36:46;;;;;;;21.38;14.90;;;3.20;99.90;;;;;;5086417;28;20433;-68
2023/03/09 08:39:11;;;;;;;23.55;14.95;;;3.30;99.90;;;;;;5093064;28;20406;-66
2023/03/09 08:41:37;;;;;;;21.83;15.57;;;3.30;99.90;;;;;;5099688;28;20058;-65
2023/03/09 08:44:03;;;;;;;24.05;15.48;;;3.30;99.90;;;;;;5098982;28;20459;-66
2023/03/09 08:46:28;;;;;;;20.60;14.68;;;3.30;99.90;;;;;;5087345;28;20089;-66
2023/03/09 08:48:56;;;;;;;20.65;14.75;;;3.30;99.90;;;;;;5084497;28;20062;-67
2023/03/09 08:51:22;;;;;;;21.65;13.98;;;3.30;99.90;;;;;;5086405;28;20097;-66
2023/03/09 08:53:48;;;;;;;22.98;13.85;;;3.40;99.90;;;;;;5089489;28;20034;-67
2023/03/09 08:56:14;;;;;;;20.25;14.60;;;3.40;99.90;;;;;;5090747;28;20119;-67
2023/03/09 08:58:40;;;;;;;21.55;15.10;;;3.40;99.90;;;;;;5095355;28;20091;-67
2023/03/09 09:01:08;;;;;;;24.23;15.68;;;3.40;99.90;;;;;;5101178;28;20024;-65
2023/03/09 09:03:35;;;;;;;22.27;16.80;;;3.30;99.90;;;;;;5102670;28;20615;-65
2023/03/09 09:06:09;;;;;;;23.42;16.02;;;3.30;99.90;;;;;;5093595;28;20073;-65
2023/03/09 09:08:35;;;;;;;28.27;17.55;;;3.30;99.90;;;;;;5095952;28;20542;-65
2023/03/09 09:11:09;;;;;;;25.98;17.67;;;3.30;99.90;;;;;;5104627;28;20111;-65
2023/03/09 09:13:34;;;;;;;25.13;16.88;;;3.30;99.90;;;;;;5088207;28;20434;-65
2023/03/09 09:16:00;;;;;;;25.85;17.27;;;3.30;99.90;;;;;;5090185;28;20044;-64
2023/03/09 09:18:26;;;;;;;28.83;17.75;;;3.30;99.90;;;;;;5103496;28;20028;-64
2023/03/09 09:20:52;;;;;;;25.55;16.10;;;3.30;99.90;;;;;;5090568;28;20360;-66
2023/03/09 09:23:18;;;;;;;21.17;14.75;;;3.30;99.90;;;;;;5097946;28;20073;-65
2023/03/09 09:25:43;;;;;;;22.08;14.77;;;3.30;99.90;;;;;;5093432;28;20021;-65
2023/03/09 09:28:09;;;;;;;24.85;17.17;;;3.40;99.90;;;;;;5100972;27;20453;-65
2023/03/09 09:30:36;;;;;;;23.50;15.07;;;3.40;99.90;;;;;;5109262;28;20031;-65
2023/03/09 09:33:04;;;;;;;25.45;16.60;;;3.50;99.90;;;;;;5102009;28;20675;-65
2023/03/09 09:35:30;;;;;;;23.27;16.67;;;3.50;99.90;;;;;;5111426;28;20421;-65
2023/03/09 09:37:57;;;;;;;25.83;16.05;;;3.50;99.90;;;;;;5094855;28;20139;-65
2023/03/09 09:40:23;;;;;;;24.58;16.33;;;3.60;99.90;;;;;;5094145;28;20032;-65
2023/03/09 09:42:50;;;;;;;25.67;16.30;;;3.60;99.90;;;;;;5092799;28;20038;-65
2023/03/09 09:45:25;;;;;;;25.80;15.98;;;3.60;99.90;;;;;;5099201;28;20638;-65
2023/03/09 09:47:52;;;;;;;23.80;16.73;;;3.60;99.90;;;;;;5094013;28;20067;-64
2023/03/09 09:50:18;;;;;;;24.85;16.70;;;3.60;99.90;;;;;;5092983;28;20024;-65
2023/03/09 09:52:51;;;;;;;23.90;17.08;;;3.60;99.90;;;;;;5091265;28;20494;-66
2023/03/09 09:55:19;;;;;;;25.83;16.77;;;3.60;99.90;;;;;;5087202;28;20039;-65
2023/03/09 09:58:27;;;;;;;25.35;17.13;;;3.60;99.90;;;;;;5071665;28;20040;-64
2023/03/09 10:00:55;;;;;;;22.58;15.88;;;3.60;99.90;;;;;;5090192;28;20039;-66
2023/03/09 10:03:31;;;;;;;21.95;15.82;;;3.60;99.90;;;;;;5091474;28;20024;-64
2023/03/09 10:06:11;;;;;;;21.73;15.73;;;3.60;99.90;;;;;;5100397;28;20028;-64
2023/03/09 10:08:59;;;;;;;25.90;16.92;;;3.60;99.90;;;;;;5102729;28;20047;-64
2023/03/09 10:11:35;;;;;;;23.27;15.65;;;3.70;99.90;;;;;;5091245;28;20498;-64
2023/03/09 10:14:07;;;;;;;27.08;16.02;;;3.70;99.90;;;;;;5095152;28;20611;-64
2023/03/09 10:16:41;;;;;;;21.80;15.20;;;3.70;99.90;;;;;;5099414;28;20081;-63
2023/03/09 10:19:19;;;;;;;22.88;15.48;;;3.70;99.90;;;;;;5095946;28;20027;-63
2023/03/09 10:22:03;;;;;;;25.88;16.50;;;3.70;99.90;;;;;;5091478;28;20482;-64
2023/03/09 10:24:35;;;;;;;22.95;15.75;;;3.70;99.90;;;;;;5091627;28;20494;-64
2023/03/09 10:27:07;;;;;;;25.15;16.45;;;3.70;99.90;;;;;;5104398;28;20080;-65
2023/03/09 10:29:57;;;;;;;28.55;18.40;;;3.70;99.90;;;;;;5090294;28;20032;-64
2023/03/09 10:32:34;;;;;;;26.13;17.60;;;3.70;99.90;;;;;;5108432;28;20043;-63
2023/03/09 10:35:19;;;;;;;22.88;15.82;;;3.70;99.90;;;;;;5094009;28;20066;-64
2023/03/09 10:37:50;;;;;;;25.38;17.30;;;3.80;99.90;;;;;;5090697;28;20042;-63
2023/03/09 10:40:32;;;;;;;22.10;15.57;;;3.80;99.90;;;;;;5087285;28;20387;-64
2023/03/09 10:42:59;;;;;;;23.45;15.02;;;3.70;99.90;;;;;;5103761;28;20030;-63
2023/03/09 10:45:25;;;;;;;27.55;17.30;;;3.80;99.90;;;;;;5107913;28;20490;-63
2023/03/09 10:47:58;;;;;;;25.42;17.08;;;3.90;99.90;;;;;;5097548;28;20046;-64
2023/03/09 10:50:32;;;;;;;25.38;17.02;;;3.90;99.90;;;;;;5092846;28;20103;-63
2023/03/09 10:53:21;;;;;;;27.70;17.30;;;3.90;99.90;;;;;;5098083;28;20483;-65
2023/03/09 10:55:48;;;;;;;26.27;17.40;;;3.80;99.90;;;;;;5105596;28;20085;-65
2023/03/09 10:58:24;;;;;;;30.92;18.58;;;3.90;99.90;;;;;;5099971;28;20046;-64
2023/03/09 11:00:52;;;;;;;26.45;17.17;;;3.90;99.90;;;;;;5099752;28;20032;-61
2023/03/09 11:03:23;;;;;;;28.33;17.35;;;3.90;99.90;;;;;;5103551;28;20035;-64
2023/03/09 11:05:49;;;;;;;23.85;16.85;;;4.00;99.90;;;;;;5102714;28;20387;-70
2023/03/09 11:08:29;;;;;;;24.75;16.92;;;4.00;99.90;;;;;;5102329;28;20036;-65
2023/03/09 11:11:03;;;;;;;21.50;15.13;;;4.00;99.90;;;;;;5076686;28;20114;-65
2023/03/09 11:13:28;;;;;;;25.38;17.73;;;4.10;99.90;;;;;;5081613;28;20471;-65
2023/03/09 11:16:34;;;;;;;29.33;17.92;;;4.10;99.90;;;;;;5110276;28;20050;-65
2023/03/09 11:19:04;;;;;;;;;;;4.10;99.90;;;;;;5097496;28;20031;-65
2023/03/09 11:21:30;;;;;;;24.88;15.50;;;4.10;99.90;;;;;;5096236;28;20298;-65
2023/03/09 11:24:00;;;;;;;24.98;16.35;;;4.10;99.90;;;;;;5086243;28;20020;-65
2023/03/09 11:26:33;;;;;;;25.60;17.38;;;4.10;99.90;;;;;;5080781;28;20063;-65
2023/03/09 11:29:02;;;;;;;25.30;15.20;;;4.20;99.90;;;;;;5087321;28;20085;-66
2023/03/09 11:31:39;;;;;;;25.88;17.10;;;4.20;99.90;;;;;;5080592;28;20063;-65
2023/03/09 11:34:10;;;;;;;28.58;18.13;;;4.20;99.90;;;;;;5107478;28;20027;-65
2023/03/09 11:36:43;;;;;;;29.92;19.63;;;4.20;99.90;;;;;;5096497;28;20517;-66
2023/03/09 11:39:44;;;;;;;27.02;17.75;;;4.20;99.90;;;;;;5088171;28;20024;-64
2023/03/09 11:42:14;;;;;;;26.63;17.60;;;4.30;99.90;;;;;;5017973;28;20036;-65
2023/03/09 11:44:44;;;;;;;26.92;17.05;;;4.30;99.90;;;;;;5091024;28;20517;-65
2023/03/09 11:47:30;;;;;;;26.52;18.77;;;4.30;99.90;;;;;;5099605;28;20040;-65
2023/03/09 11:50:01;;;;;;;29.77;17.98;;;4.30;99.90;;;;;;5095059;28;20046;-64
2023/03/09 11:52:32;;;;;;;32.47;18.90;;;4.30;99.90;;;;;;5080994;28;20158;-64
2023/03/09 11:55:01;;;;;;;26.15;17.95;;;4.30;99.90;;;;;;5088259;28;20027;-64
2023/03/09 11:57:28;;;;;;;27.30;18.30;;;4.30;99.90;;;;;;5096089;28;20483;-64
2023/03/09 12:00:06;;;;;;;25.83;18.25;;;4.30;99.90;;;;;;5088198;28;20062;-63
2023/03/09 12:03:02;;;;;;;27.00;18.60;;;4.40;99.90;;;;;;5088200;28;20020;-64
2023/03/09 12:05:39;;;;;;;28.75;19.58;;;4.40;99.90;;;;;;5097949;28;20092;-64
2023/03/09 12:08:22;;;;;;;29.40;18.25;;;4.40;99.90;;;;;;5096628;28;20387;-63
2023/03/09 12:11:03;;;;;;;26.35;18.70;;;4.40;99.90;;;;;;5091461;28;20215;-66
2023/03/09 12:13:39;;;;;;;28.08;18.48;;;4.30;99.90;;;;;;5096576;28;20095;-64
2023/03/09 12:16:18;;;;;;;24.58;17.20;;;4.30;99.90;;;;;;5096932;28;20483;-65
2023/03/09 12:19:20;;;;;;;25.35;18.45;;;4.30;99.90;;;;;;5089280;28;20054;-65
2023/03/09 12:22:16;;;;;;;27.42;19.38;;;4.40;99.90;;;;;;5073134;28;20028;-66
2023/03/09 12:25:02;;;;;;;27.42;19.63;;;4.40;99.90;;;;;;5095580;28;20469;-64
2023/03/09 12:27:31;;;;;;;28.25;18.58;;;4.40;99.90;;;;;;5098107;28;20043;-64
2023/03/09 12:29:59;;;;;;;30.08;19.27;;;4.30;99.90;;;;;;5102755;28;20023;-64
2023/03/09 12:32:25;;;;;;;29.55;19.20;;;4.30;99.90;;;;;;5113926;28;20046;-64
2023/03/09 12:34:53;;;;;;;26.67;18.90;;;4.40;99.90;;;;;;5100000;28;20470;-63
2023/03/09 12:37:28;;;;;;;29.20;19.42;;;4.30;99.90;;;;;;5091548;28;20031;-63
2023/03/09 12:39:58;;;;;;;;;;;4.40;99.90;;;;;;5099630;28;20042;-63
2023/03/09 12:42:37;;;;;;;25.35;17.35;;;4.50;99.90;;;;;;5112860;28;19907;-63
2023/03/09 12:45:31;;;;;;;30.65;18.92;;;4.50;99.90;;;;;;5091740;28;20020;-63
2023/03/09 12:48:11;;;;;;;26.10;17.75;;;4.50;99.90;;;;;;5101519;28;20044;-63